createdAt,value
2023-05-10T00:00:51.860Z,97476.84
2023-05-10T00:03:18.411Z,97471.03
2023-05-10T00:05:58.523Z,97468.72
2023-05-10T00:08:24.987Z,97464.84
2023-05-10T00:10:51.583Z,97473.38
2023-05-10T00:13:20.355Z,97467.19
2023-05-10T00:15:47.090Z,97471.06
2023-05-10T00:18:13.595Z,97464.09
2023-05-10T00:20:40.181Z,97467.19
2023-05-10T00:23:06.648Z,97466.81
2023-05-10T00:25:33.197Z,97466.03
2023-05-10T00:28:02.402Z,97463.31
2023-05-10T00:30:29.124Z,97472.22
2023-05-10T00:32:55.693Z,97463.31
2023-05-10T00:35:24.458Z,97471.44
2023-05-10T00:37:54.401Z,97471.06
2023-05-10T00:40:21.795Z,97467.19
2023-05-10T00:42:48.897Z,97471.81
2023-05-10T00:45:15.445Z,97473.38
2023-05-10T00:47:42.048Z,97474.13
2023-05-10T00:50:17.672Z,97480.72
2023-05-10T00:52:44.284Z,97476.44
2023-05-10T00:55:12.486Z,97475.28
2023-05-10T00:57:39.673Z,97477.25
2023-05-10T01:00:06.969Z,97480.34
2023-05-10T01:02:36.352Z,97489.25
2023-05-10T01:05:06.458Z,97488.09
2023-05-10T01:07:34.715Z,97482.66
2023-05-10T01:10:01.303Z,97490.03
2023-05-10T01:12:28.274Z,97483.81
2023-05-10T01:14:55.868Z,97491.94
2023-05-10T01:17:23.881Z,97497.38
2023-05-10T01:19:51.005Z,97486.53
2023-05-10T01:22:32.522Z,97487.31
2023-05-10T01:25:19.688Z,97489.63
2023-05-10T01:28:32.580Z,97501.28
2023-05-10T01:31:32.533Z,97502.81
2023-05-10T01:34:13.339Z,97501.28
2023-05-10T01:37:06.705Z,97496.25
2023-05-10T01:39:40.432Z,97489.66
2023-05-10T01:42:14.285Z,97484.63
2023-05-10T01:45:31.898Z,97492.00
2023-05-10T01:48:08.653Z,97493.56
2023-05-10T01:50:37.566Z,97501.31
2023-05-10T01:53:08.229Z,97498.22
2023-05-10T01:55:41.226Z,97505.19
2023-05-10T01:58:11.113Z,97504.78
2023-05-10T02:00:41.619Z,97503.25
2023-05-10T02:03:13.548Z,97500.16
2023-05-10T02:05:42.371Z,97512.91
2023-05-10T02:08:10.289Z,97507.50
2023-05-10T02:10:37.827Z,97513.69
2023-05-10T02:13:07.146Z,97512.16
2023-05-10T02:15:35.112Z,97506.72
2023-05-10T02:18:06.332Z,97508.66
2023-05-10T02:20:34.262Z,97515.22
2023-05-10T02:23:02.027Z,97518.31
2023-05-10T02:25:31.046Z,97521.03
2023-05-10T02:28:00.677Z,97517.56
2023-05-10T02:30:27.794Z,97517.56
2023-05-10T02:33:01.672Z,97528.41
2023-05-10T02:35:29.161Z,97516.00
2023-05-10T02:37:56.079Z,97525.72
2023-05-10T02:40:23.985Z,97525.31
2023-05-10T02:42:53.284Z,97521.44
2023-05-10T02:45:23.191Z,97522.22
2023-05-10T02:47:50.051Z,97521.06
2023-05-10T02:50:17.143Z,97515.63
2023-05-10T02:52:52.538Z,97518.34
2023-05-10T02:55:27.735Z,97511.78
2023-05-10T02:58:01.810Z,97518.34
2023-05-10T03:00:28.711Z,97512.16
2023-05-10T03:02:55.766Z,97523.00
2023-05-10T03:05:24.453Z,97521.47
2023-05-10T03:07:51.950Z,97523.00
2023-05-10T03:10:19.657Z,97526.09
2023-05-10T03:13:00.243Z,97530.38
2023-05-10T03:15:53.528Z,97529.97
2023-05-10T03:18:26.081Z,97540.81
2023-05-10T03:21:00.244Z,97536.16
2023-05-10T03:23:43.276Z,97534.59
2023-05-10T03:26:09.979Z,97522.63
2023-05-10T03:28:39.577Z,97519.13
2023-05-10T03:31:10.180Z,97524.56
2023-05-10T03:33:36.738Z,97526.09
2023-05-10T03:36:03.403Z,97519.53
2023-05-10T03:38:30.673Z,97525.72
2023-05-10T03:40:57.275Z,97524.56
2023-05-10T03:43:23.710Z,97523.00
2023-05-10T03:45:54.839Z,97524.56
2023-05-10T03:48:21.296Z,97523.00
2023-05-10T03:50:47.822Z,97521.47
2023-05-10T03:53:14.428Z,97522.25
2023-05-10T03:55:41.166Z,97522.22
2023-05-10T03:58:07.691Z,97521.47
2023-05-10T04:00:36.159Z,97523.78
2023-05-10T04:03:02.748Z,97525.34
2023-05-10T04:05:29.404Z,97522.25
2023-05-10T04:08:00.474Z,97522.66
2023-05-10T04:10:27.156Z,97521.47
2023-05-10T04:12:53.677Z,97522.63
2023-05-10T04:15:20.286Z,97529.22
2023-05-10T04:17:47.358Z,97525.34
2023-05-10T04:20:14.677Z,97521.47
2023-05-10T04:22:43.570Z,97528.81
2023-05-10T04:25:10.475Z,97539.66
2023-05-10T04:27:36.963Z,97540.03
2023-05-10T04:30:06.418Z,97534.63
2023-05-10T04:32:35.315Z,97542.75
2023-05-10T04:35:04.532Z,97548.56
2023-05-10T04:37:33.437Z,97546.22
2023-05-10T04:40:01.001Z,97557.84
2023-05-10T04:42:27.654Z,97559.38
2023-05-10T04:45:03.456Z,97564.03
2023-05-10T04:47:31.862Z,97560.53
2023-05-10T04:49:58.541Z,97564.03
2023-05-10T04:52:25.183Z,97566.38
2023-05-10T04:54:52.380Z,97573.72
2023-05-10T04:57:23.043Z,97563.28
2023-05-10T04:59:50.479Z,97570.22
2023-05-10T05:02:17.194Z,97575.28
2023-05-10T05:04:43.696Z,97584.53
2023-05-10T05:07:12.423Z,97583.38
2023-05-10T05:09:38.899Z,97582.19
2023-05-10T05:12:05.706Z,97587.19
2023-05-10T05:14:35.128Z,97591.41
2023-05-10T05:17:01.888Z,97592.97
2023-05-10T05:19:28.505Z,97599.50
2023-05-10T05:21:57.132Z,97594.47
2023-05-10T05:24:23.947Z,97602.97
2023-05-10T05:26:50.413Z,97600.66
2023-05-10T05:29:18.738Z,97606.44
2023-05-10T05:31:45.254Z,97606.44
2023-05-10T05:34:16.429Z,97613.38
2023-05-10T05:36:43.241Z,97619.59
2023-05-10T05:39:09.697Z,97619.97
2023-05-10T05:41:36.207Z,97638.13
2023-05-10T05:44:07.305Z,97632.72
2023-05-10T05:46:33.778Z,97638.88
2023-05-10T05:49:00.372Z,97638.47
2023-05-10T05:51:26.983Z,97641.19
2023-05-10T05:53:53.972Z,97641.53
2023-05-10T05:56:25.244Z,97648.13
2023-05-10T05:58:52.492Z,97644.69
2023-05-10T06:01:19.026Z,97652.00
2023-05-10T06:03:45.687Z,97650.88
2023-05-10T06:06:12.479Z,97651.31
2023-05-10T06:08:39.024Z,97655.56
2023-05-10T06:11:05.587Z,97652.88
2023-05-10T06:13:43.174Z,97655.63
2023-05-10T06:16:11.569Z,97654.09
2023-05-10T06:18:38.360Z,97654.50
2023-05-10T06:21:11.455Z,97657.22
2023-05-10T06:23:38.039Z,97659.97
2023-05-10T06:26:05.064Z,97657.25
2023-05-10T06:28:35.129Z,97658.44
2023-05-10T06:31:01.731Z,97662.31
2023-05-10T06:33:28.598Z,97666.59
2023-05-10T06:35:57.268Z,97665.44
2023-05-10T06:38:23.847Z,97675.50
2023-05-10T06:40:50.366Z,97666.59
2023-05-10T06:43:18.689Z,97666.19
2023-05-10T06:45:45.412Z,97662.72
2023-05-10T06:48:11.990Z,97660.78
2023-05-10T06:50:38.733Z,97661.97
2023-05-10T06:53:05.210Z,97656.19
2023-05-10T06:55:31.787Z,97661.63
2023-05-10T06:58:03.468Z,97658.53
2023-05-10T07:00:29.924Z,97665.91
2023-05-10T07:02:56.840Z,97667.06
2023-05-10T07:05:25.251Z,97668.59
2023-05-10T07:07:52.643Z,97678.69
2023-05-10T07:10:19.357Z,97666.28
2023-05-10T07:12:46.056Z,97677.13
2023-05-10T07:15:12.629Z,97681.38
2023-05-10T07:17:39.146Z,97672.50
2023-05-10T07:20:06.559Z,97671.31
2023-05-10T07:22:33.171Z,97668.94
2023-05-10T07:24:59.751Z,97671.56
2023-05-10T07:27:28.208Z,97672.19
2023-05-10T07:29:55.709Z,97672.06
2023-05-10T07:32:22.675Z,97679.91
2023-05-10T07:34:51.131Z,97676.91
2023-05-10T07:37:17.622Z,97681.50
2023-05-10T07:39:44.118Z,97688.13
2023-05-10T07:42:10.733Z,97695.59
2023-05-10T07:44:39.079Z,97697.19
2023-05-10T07:47:05.677Z,97685.59
2023-05-10T07:49:32.386Z,97691.00
2023-05-10T07:51:58.876Z,97690.97
2023-05-10T07:54:27.623Z,97682.69
2023-05-10T07:56:54.290Z,97694.56
2023-05-10T07:59:21.076Z,97693.41
2023-05-10T08:01:47.583Z,97697.03
2023-05-10T08:04:16.421Z,97701.03
2023-05-10T08:06:43.314Z,97701.41
2023-05-10T08:09:10.082Z,97705.22
2023-05-10T08:11:38.362Z,97710.09
2023-05-10T08:14:06.765Z,97714.72
2023-05-10T08:16:33.574Z,97710.03
2023-05-10T08:19:04.819Z,97711.84
2023-05-10T08:21:32.300Z,97709.66
2023-05-10T08:23:58.958Z,97708.81
2023-05-10T08:26:32.076Z,97714.06
2023-05-10T08:28:58.625Z,97703.06
2023-05-10T08:31:25.185Z,97711.53
2023-05-10T08:33:53.741Z,97717.13
2023-05-10T08:36:22.991Z,97711.81
2023-05-10T08:38:52.808Z,97718.97
2023-05-10T08:41:24.334Z,97718.84
2023-05-10T08:43:54.793Z,97719.84
2023-05-10T08:46:23.341Z,97726.72
2023-05-10T08:49:06.217Z,97724.41
2023-05-10T08:51:41.806Z,97730.63
2023-05-10T08:54:09.238Z,97723.66
2023-05-10T08:56:36.116Z,97716.97
2023-05-10T08:59:02.836Z,97727.41
2023-05-10T09:01:29.907Z,97720.91
2023-05-10T09:03:58.953Z,97723.59
2023-05-10T09:06:25.872Z,97722.38
2023-05-10T09:08:53.548Z,97726.38
2023-05-10T09:11:21.554Z,97732.22
2023-05-10T09:13:51.894Z,97728.31
2023-05-10T09:16:22.558Z,97735.75
2023-05-10T09:18:57.251Z,97730.47
2023-05-10T09:21:23.799Z,97720.56
2023-05-10T09:23:51.179Z,97731.91
2023-05-10T09:26:20.560Z,97734.06
2023-05-10T09:28:55.518Z,97733.66
2023-05-10T09:31:26.854Z,97732.72
2023-05-10T09:33:54.754Z,97726.41
2023-05-10T09:36:21.298Z,97737.75
2023-05-10T09:38:53.801Z,97731.44
2023-05-10T09:41:22.620Z,97725.25
2023-05-10T09:43:49.358Z,97724.97
2023-05-10T09:46:19.475Z,97717.03
2023-05-10T09:48:48.674Z,97715.44
2023-05-10T09:51:26.026Z,97711.81
2023-05-10T09:54:19.548Z,97717.78
2023-05-10T09:56:46.559Z,97710.97
2023-05-10T09:59:14.022Z,97717.47
2023-05-10T10:01:41.675Z,97710.50
2023-05-10T10:04:12.529Z,97709.16
2023-05-10T10:06:42.875Z,97709.00
2023-05-10T10:09:10.286Z,97706.72
2023-05-10T10:11:38.169Z,97705.31
2023-05-10T10:14:05.964Z,97719.44
2023-05-10T10:16:33.487Z,97711.72
2023-05-10T10:19:00.465Z,97715.25
2023-05-10T10:21:27.871Z,97708.09
2023-05-10T10:23:57.003Z,97705.78
2023-05-10T10:26:26.554Z,97708.97
2023-05-10T10:29:11.431Z,97711.94
2023-05-10T10:31:45.087Z,97718.66
2023-05-10T10:34:36.003Z,97712.66
2023-05-10T10:37:08.487Z,97708.91
2023-05-10T10:39:37.720Z,97705.91
2023-05-10T10:42:05.697Z,97708.31
2023-05-10T10:44:34.629Z,97716.97
2023-05-10T10:47:14.099Z,97713.91
2023-05-10T10:49:45.123Z,97716.72
2023-05-10T10:52:30.938Z,97713.66
2023-05-10T10:55:14.079Z,97715.59
2023-05-10T10:58:01.523Z,97712.69
2023-05-10T11:00:37.446Z,97714.81
2023-05-10T11:03:18.073Z,97715.00
2023-05-10T11:05:51.282Z,97706.31
2023-05-10T11:08:27.996Z,97711.03
2023-05-10T11:11:01.011Z,97709.03
2023-05-10T11:13:30.392Z,97711.03
2023-05-10T11:16:00.507Z,97718.03
2023-05-10T11:18:29.851Z,97711.22
2023-05-10T11:21:01.407Z,97707.34
2023-05-10T11:23:33.387Z,97711.44
2023-05-10T11:26:02.185Z,97709.13
2023-05-10T11:28:29.377Z,97704.91
2023-05-10T11:33:47.828Z,97704.03
2023-05-10T11:36:29.012Z,97697.56
2023-05-10T11:39:01.317Z,97696.47
2023-05-10T11:41:29.963Z,97697.75
2023-05-10T11:43:59.117Z,97688.44
2023-05-10T11:46:29.911Z,97684.81
2023-05-10T11:49:05.321Z,97683.63
2023-05-10T11:51:34.672Z,97676.59
2023-05-10T11:54:01.309Z,97674.50
2023-05-10T11:56:29.580Z,97680.63
2023-05-10T11:58:58.864Z,97691.72
2023-05-10T12:01:27.390Z,97692.75
2023-05-10T12:03:56.189Z,97696.84
2023-05-10T12:06:23.450Z,97689.94
2023-05-10T12:08:54.976Z,97685.03
2023-05-10T12:11:26.009Z,97687.84
2023-05-10T12:13:52.744Z,97687.94
2023-05-10T12:16:24.603Z,97684.56
2023-05-10T12:18:56.900Z,97693.69
2023-05-10T12:21:27.989Z,97693.38
2023-05-10T12:24:01.046Z,97693.38
2023-05-10T12:26:29.418Z,97685.44
2023-05-10T12:28:56.679Z,97692.22
2023-05-10T12:31:25.477Z,97690.44
2023-05-10T12:33:51.979Z,97693.72
2023-05-10T12:36:24.756Z,97694.75
2023-05-10T12:38:54.575Z,97689.28
2023-05-10T12:41:23.023Z,97694.00
2023-05-10T12:43:49.480Z,97697.16
2023-05-10T12:46:17.883Z,97694.81
2023-05-10T12:48:45.558Z,97700.81
2023-05-10T12:51:18.111Z,97703.06
2023-05-10T12:53:49.602Z,97704.22
2023-05-10T12:56:16.277Z,97700.22
2023-05-10T12:58:49.120Z,97703.16
2023-05-10T13:01:17.956Z,97694.16
2023-05-10T13:03:44.862Z,97692.84
2023-05-10T13:06:11.355Z,97692.63
2023-05-10T13:08:39.556Z,97692.38
2023-05-10T13:11:08.488Z,97689.38
2023-05-10T13:13:35.005Z,97693.84
2023-05-10T13:16:03.311Z,97698.94
2023-05-10T13:18:29.831Z,97690.22
2023-05-10T13:21:00.206Z,97681.81
2023-05-10T13:23:28.452Z,97686.38
2023-05-10T13:25:54.929Z,97682.34
2023-05-10T13:28:21.401Z,97682.22
2023-05-10T13:30:49.677Z,97680.63
2023-05-10T13:33:16.244Z,97676.34
2023-05-10T13:35:42.827Z,97669.28
2023-05-10T13:38:11.476Z,97662.59
2023-05-10T13:40:38.000Z,97673.59
2023-05-10T13:43:04.459Z,97673.31
2023-05-10T13:45:31.258Z,97671.75
2023-05-10T13:47:58.379Z,97670.75
2023-05-10T13:50:26.730Z,97670.59
2023-05-10T13:52:53.401Z,97672.47
2023-05-10T13:55:20.220Z,97672.72
2023-05-10T13:57:46.926Z,97667.84
2023-05-10T14:00:16.246Z,97660.91
2023-05-10T14:02:43.068Z,97664.50
2023-05-10T14:05:09.906Z,97656.72
2023-05-10T14:07:36.456Z,97656.44
2023-05-10T14:10:03.042Z,97660.16
2023-05-10T14:12:30.088Z,97668.75
2023-05-10T14:15:01.309Z,97662.34
2023-05-10T14:17:27.948Z,97653.81
2023-05-10T14:19:56.688Z,97654.16
2023-05-10T14:22:23.896Z,97649.72
2023-05-10T14:24:51.188Z,97646.72
2023-05-10T14:27:21.458Z,97642.19
2023-05-10T14:29:48.896Z,97641.09
2023-05-10T14:32:15.380Z,97645.69
2023-05-10T14:34:41.913Z,97646.56
2023-05-10T14:37:14.970Z,97642.50
2023-05-10T14:39:41.843Z,97641.50
2023-05-10T14:42:08.448Z,97652.03
2023-05-10T14:44:47.254Z,97641.06
2023-05-10T14:47:15.689Z,97649.28
2023-05-10T14:49:42.143Z,97648.81
2023-05-10T14:52:12.170Z,97645.69
2023-05-10T14:54:39.703Z,97655.59
2023-05-10T14:57:06.447Z,97654.91
2023-05-10T14:59:34.747Z,97644.66
2023-05-10T15:02:05.267Z,97650.09
2023-05-10T15:04:32.259Z,97641.72
2023-05-10T15:07:00.396Z,97641.00
2023-05-10T15:09:28.495Z,97640.28
2023-05-10T15:11:55.861Z,97639.75
2023-05-10T15:14:29.646Z,97641.09
2023-05-10T15:16:56.180Z,97634.75
2023-05-10T15:19:22.710Z,97635.81
2023-05-10T15:21:49.426Z,97638.38
2023-05-10T15:24:16.137Z,97642.97
2023-05-10T15:26:42.622Z,97645.34
2023-05-10T15:29:11.370Z,97639.78
2023-05-10T15:31:37.909Z,97643.38
2023-05-10T15:34:04.481Z,97645.94
2023-05-10T15:36:34.485Z,97650.97
2023-05-10T15:39:00.914Z,97651.50
2023-05-10T15:41:27.823Z,97650.25
2023-05-10T15:43:57.297Z,97657.19
2023-05-10T15:46:23.892Z,97656.63
2023-05-10T15:48:50.685Z,97655.31
2023-05-10T15:51:19.319Z,97658.25
2023-05-10T15:54:00.523Z,97658.25
2023-05-10T15:56:38.794Z,97659.72
2023-05-10T15:59:06.206Z,97662.03
2023-05-10T16:01:33.245Z,97660.56
2023-05-10T16:04:00.306Z,97662.53
2023-05-10T16:06:27.191Z,97670.16
2023-05-10T16:08:54.704Z,97675.28
2023-05-10T16:11:23.395Z,97667.72
2023-05-10T16:13:50.117Z,97685.25
2023-05-10T16:16:16.870Z,97691.13
2023-05-10T16:18:45.629Z,97695.16
2023-05-10T16:21:16.096Z,97704.31
2023-05-10T16:23:43.280Z,97705.91
2023-05-10T16:26:11.508Z,97696.69
2023-05-10T16:28:39.700Z,97696.78
2023-05-10T16:31:06.444Z,97701.50
2023-05-10T16:33:33.066Z,97694.19
2023-05-10T16:35:59.525Z,97699.38
2023-05-10T16:38:27.884Z,97709.22
2023-05-10T16:40:54.613Z,97701.91
2023-05-10T16:43:21.103Z,97705.47
2023-05-10T16:45:47.579Z,97697.25
2023-05-10T16:48:14.260Z,97705.94
2023-05-10T16:50:44.406Z,97706.81
2023-05-10T16:53:11.784Z,97711.56
2023-05-10T16:55:40.450Z,97714.47
2023-05-10T16:58:06.900Z,97719.28
2023-05-10T17:00:33.740Z,97725.22
2023-05-10T17:03:00.496Z,97722.09
2023-05-10T17:05:27.102Z,97727.25
2023-05-10T17:07:53.570Z,97737.41
2023-05-10T17:10:22.288Z,97743.03
2023-05-10T17:12:53.797Z,97737.25
2023-05-10T17:15:21.032Z,97729.94
2023-05-10T17:17:48.336Z,97738.16
2023-05-10T17:20:18.396Z,97741.63
2023-05-10T17:22:46.540Z,97738.09
2023-05-10T17:25:19.940Z,97733.34
2023-05-10T17:27:46.693Z,97729.41
2023-05-10T17:30:13.422Z,97734.88
2023-05-10T17:32:39.947Z,97731.25
2023-05-10T17:35:06.902Z,97730.88
2023-05-10T17:37:34.736Z,97723.50
2023-05-10T17:40:01.602Z,97719.34
2023-05-10T17:42:28.237Z,97717.94
2023-05-10T17:44:54.829Z,97725.09
2023-05-10T17:47:21.319Z,97725.16
2023-05-10T17:49:48.032Z,97719.75
2023-05-10T17:52:14.786Z,97720.19
2023-05-10T17:54:41.280Z,97726.84
2023-05-10T17:57:07.877Z,97723.38
2023-05-10T17:59:34.365Z,97717.19
2023-05-10T18:02:01.800Z,97722.22
2023-05-10T18:04:28.393Z,97719.56
2023-05-10T18:07:01.438Z,97727.00
2023-05-10T18:09:30.176Z,97722.78
2023-05-10T18:11:56.632Z,97720.88
2023-05-10T18:14:38.946Z,97724.41
2023-05-10T18:17:08.079Z,97727.16
2023-05-10T18:19:34.877Z,97724.84
2023-05-10T18:22:01.359Z,97729.50
2023-05-10T18:24:38.377Z,97723.72
2023-05-10T18:27:07.697Z,97728.03
2023-05-10T18:29:34.267Z,97728.81
2023-05-10T18:32:00.971Z,97730.78
2023-05-10T18:34:27.495Z,97731.94
2023-05-10T18:36:55.784Z,97730.38
2023-05-10T18:39:22.287Z,97743.59
2023-05-10T18:41:50.247Z,97746.31
2023-05-10T18:44:16.876Z,97750.63
2023-05-10T18:46:43.581Z,97751.03
2023-05-10T18:49:10.207Z,97744.81
2023-05-10T18:51:36.807Z,97749.09
2023-05-10T18:54:03.545Z,97755.72
2023-05-10T18:56:31.892Z,97753.38
2023-05-10T18:59:00.205Z,97754.19
2023-05-10T19:01:26.677Z,97763.13
2023-05-10T19:03:53.234Z,97769.34
2023-05-10T19:06:19.908Z,97766.25
2023-05-10T19:08:48.286Z,97769.75
2023-05-10T19:11:14.735Z,97774.78
2023-05-10T19:13:41.398Z,97775.59
2023-05-10T19:16:15.140Z,97772.47
2023-05-10T19:18:44.098Z,97785.66
2023-05-10T19:21:22.534Z,97785.66
2023-05-10T19:23:51.293Z,97785.66
2023-05-10T19:26:18.067Z,97783.72
2023-05-10T19:28:45.093Z,97788.78
2023-05-10T19:31:12.259Z,97794.97
2023-05-10T19:33:40.571Z,97789.56
2023-05-10T19:36:10.759Z,97786.44
2023-05-10T19:38:37.525Z,97785.28
2023-05-10T19:41:04.342Z,97791.09
2023-05-10T19:43:34.552Z,97791.88
2023-05-10T19:46:03.460Z,97801.94
2023-05-10T19:48:30.116Z,97797.69
2023-05-10T19:51:03.377Z,97802.72
2023-05-10T19:53:30.659Z,97804.25
2023-05-10T19:56:06.526Z,97802.69
2023-05-10T19:58:33.903Z,97802.66
2023-05-10T20:01:00.486Z,97803.44
2023-05-10T20:03:30.353Z,97804.59
2023-05-10T20:06:01.361Z,97804.59
2023-05-10T20:08:27.922Z,97804.19
2023-05-10T20:10:54.396Z,97803.44
2023-05-10T20:13:20.880Z,97815.44
2023-05-10T20:15:47.496Z,97807.28
2023-05-10T20:18:15.766Z,97808.06
2023-05-10T20:20:42.413Z,97807.25
2023-05-10T20:23:08.922Z,97810.34
2023-05-10T20:25:35.769Z,97805.69
2023-05-10T20:28:02.320Z,97805.66
2023-05-10T20:30:28.896Z,97819.59
2023-05-10T20:32:55.474Z,97811.84
2023-05-10T20:35:22.080Z,97811.44
2023-05-10T20:37:48.680Z,97811.06
2023-05-10T20:40:15.762Z,97819.56
2023-05-10T20:42:42.413Z,97814.13
2023-05-10T20:45:09.613Z,97815.66
2023-05-10T20:47:36.504Z,97809.09
2023-05-10T20:50:03.965Z,97814.13
2023-05-10T20:52:30.488Z,97817.59
2023-05-10T20:55:07.627Z,97816.81
2023-05-10T20:57:34.752Z,97808.69
2023-05-10T21:00:01.439Z,97809.47
2023-05-10T21:02:30.104Z,97803.25
2023-05-10T21:04:57.943Z,97802.88
2023-05-10T21:07:25.150Z,97804.81
2023-05-10T21:09:51.915Z,97810.25
2023-05-10T21:12:18.467Z,97808.69
2023-05-10T21:14:46.951Z,97810.97
2023-05-10T21:17:21.964Z,97804.41
2023-05-10T21:19:48.497Z,97807.88
2023-05-10T21:22:15.263Z,97808.28
2023-05-10T21:24:41.895Z,97797.81
2023-05-10T21:27:09.083Z,97805.94
2023-05-10T21:29:35.860Z,97802.47
2023-05-10T21:32:02.840Z,97803.25
2023-05-10T21:34:29.560Z,97802.84
2023-05-10T21:36:56.031Z,97807.13
2023-05-10T21:39:24.421Z,97798.19
2023-05-10T21:41:53.177Z,97803.25
2023-05-10T21:44:19.613Z,97806.34
2023-05-10T21:46:48.405Z,97793.16
2023-05-10T21:49:14.954Z,97804.34
2023-05-10T21:51:41.377Z,97805.91
2023-05-10T21:54:17.922Z,97801.66
2023-05-10T21:56:45.307Z,97805.53
2023-05-10T21:59:12.007Z,97810.94
2023-05-10T22:01:38.810Z,97797.03
2023-05-10T22:04:07.175Z,97803.22
2023-05-10T22:06:33.639Z,97796.22
2023-05-10T22:09:00.245Z,97802.81
2023-05-10T22:11:27.423Z,97802.81
2023-05-10T22:13:53.914Z,97804.75
2023-05-10T22:16:25.072Z,97800.88
2023-05-10T22:18:51.701Z,97797.00
2023-05-10T22:21:18.223Z,97794.69
2023-05-10T22:23:46.405Z,97792.38
2023-05-10T22:26:13.170Z,97793.13
2023-05-10T22:28:39.684Z,97794.69
2023-05-10T22:31:11.601Z,97793.13
2023-05-10T22:33:38.265Z,97799.69
2023-05-10T22:36:05.261Z,97802.41
2023-05-10T22:38:38.213Z,97793.09
2023-05-10T22:41:04.715Z,97787.69
2023-05-10T22:43:31.266Z,97792.34
2023-05-10T22:45:58.028Z,97786.94
2023-05-10T22:48:24.513Z,97790.78
2023-05-10T22:50:53.039Z,97794.66
2023-05-10T22:53:21.252Z,97790.00
2023-05-10T22:55:47.870Z,97790.78
2023-05-10T22:58:17.699Z,97791.16
2023-05-10T23:00:46.165Z,97793.50
2023-05-10T23:03:12.789Z,97786.94
2023-05-10T23:05:39.310Z,97788.47
2023-05-10T23:08:12.020Z,97795.41
2023-05-10T23:10:39.168Z,97796.59
2023-05-10T23:13:06.336Z,97789.22
2023-05-10T23:15:33.442Z,97786.91
2023-05-10T23:18:04.526Z,97793.06
2023-05-10T23:20:43.039Z,97791.16
2023-05-10T23:23:15.941Z,97784.56
2023-05-10T23:25:42.432Z,97783.03
2023-05-10T23:28:10.684Z,97786.13
2023-05-10T23:30:37.196Z,97781.84
2023-05-10T23:33:04.013Z,97781.44
2023-05-10T23:35:35.268Z,97781.06
2023-05-10T23:38:02.144Z,97784.53
2023-05-10T23:40:28.727Z,97788.38
2023-05-10T23:42:55.323Z,97779.09
2023-05-10T23:45:22.061Z,97778.72
2023-05-10T23:47:48.544Z,97782.19
2023-05-10T23:50:17.009Z,97778.31
2023-05-10T23:52:43.788Z,97779.09
2023-05-10T23:55:11.016Z,97775.97
2023-05-10T23:57:39.505Z,97779.84
